Relevés horaires Matro (Suisse)


Relevés horaires à Matro - Mardi 19 Avr. 2022
Heure UTC1 Température [°C] Vent [km/h] Hum. [%] Pres.4 [hPa] Visi. [Km] Nébu. [octa] Préc.5 [mm] Cond.
2m. Res. Ros. Dir.2 Vit. Moy. Raf.3
23:00 1.1 -3.6 -8.5 NO 18.5 -- 27.8 49 850(0.0/3h) -- -- -- --
22:00 1.0 -4.9 -6.4 NNO 27.8 -- 37.0 58 850(0.4/3h) -- -- -- --
21:00 1.5 -4.7 -5.7 NNO 31.5 -- 44.4 59 850(0.9/3h) -- -- -- --
20:00 1.9 -3.6 -6.5 NNO 25.9 -- 38.9 54 850(1.1/3h) -- -- -- --
19:00 2.5 -2.4 -6.1 NO 22.2 -- 37.0 53 850(0.4/3h) -- -- -- --
18:00 3.1 -2.4 -7.1 NO 29.6 -- 50.0 47 850(0.0/3h) -- -- -- --
17:00 3.9 -0.8 -9.0 NO 24.1 -- 46.3 38 850(-0.2/3h) -- -- -- --
16:00 4.2 -0.6 -10.9 NO 25.9 -- 42.6 32 850(-0.3/3h) -- -- -- --
15:00 4.8 0.4 -10.4 NNO 24.1 -- 50.0 32 850(-0.4/3h) -- -- -- --
14:00 5.0 0.2 -10.5 NO 27.8 -- 50.0 31 850(-0.7/3h) -- -- -- --
13:00 4.8 0.6 -11.1 NNO 22.2 -- 38.9 30 850(-0.5/3h) -- -- -- --
12:00 4.7 1.1 -10.7 NO 16.7 -- 37.0 32 850(-0.5/3h) -- -- -- --
11:00 3.4 -0.8 -11.0 NNO 18.5 -- 33.3 34 850(-0.1/3h) -- -- -- --
10:00 3.0 -1.3 -11.9 NNO 18.5 -- 37.0 32 850(0.0/3h) -- -- -- --
09:00 2.8 -1.8 -12.0 NNO 20.4 -- 33.3 33 850(0.0/3h) -- -- -- --
08:00 2.5 -1.3 -12.2 NNO 14.8 -- 27.8 33 850(-0.2/3h) -- -- -- --
07:00 1.4 -3.3 -12.8 NNO 18.5 -- 27.8 34 850(-0.4/3h) -- -- -- --
06:00 0.9 -4.4 -12.2 NNO 22.2 -- 38.9 37 850(-0.6/3h) -- -- -- --
05:00 0.6 -5.5 -11.8 NNO 27.8 -- 35.2 39 850(-0.8/3h) -- -- -- --
04:00 0.7 -4.9 -13.0 NO 24.1 -- 29.6 35 850(-0.8/3h) -- -- -- --
03:00 0.6 -4.3 -13.2 NO 18.5 -- 31.5 35 850(-1.0/3h) -- -- -- --
02:00 0.8 -4.5 -12.4 NO 22.2 -- 25.9 36 850(-1.3/3h) -- -- -- --
01:00 1.0 -4.3 -12.5 NO 22.2 -- 31.5 36 850(-1.4/3h) -- -- -- --
00:00 1.0 -4 -11.4 NNO 20.4 -- 50.0 39 850(-1.0/3h) -- -- -- --

1 Coordinated Universal Time. Actuellement il est 00:00 locale et 22:00 UTC.

2 Le vent souffle depuis la direction indiquée vers la direction oposée.

3 Les rafales max. sont disponible 40 min après l'heure du relevé.

4 Pour les stations d'altitude (plus de 600m) le géopotentiel du niveau le plus proche de la pression obligatoire est indiqué.

5 Les stations disposant d'un diffuseur peuvent indiquer "trace". Cela signifie que des précipitations ont touchés le sol mais que la quantité est inférieure à 0.1 mm.

Copyright

Les données affichées sur cette page sont la propriété exclusive de Météo Suisse.

Récapitulatif de la journée
Température [°C] Vent [km/h] Ensoleillement4 [h] Precipitations totale5 [mm] Pression [Hpa]
Min1 Max.2 Moy.3 Max. Min Max.
0.4 5.1 0 50.0 12 h 12 min 0 850.0 850.0

1 Température minimale relevée entre 18:00 UTC la veille et 18:00 UTC le jour donné.

2 Température maximale relevée entre 06:00 UTC le jour donné et 06:00 UTC le lendemain.

3 Vent moyen de la journée basé sur les relevés horaires.

4 Ensoleillement en heures relevé entre 06:00 UTC la veille et 06:00 UTC le jour donné.

5 Précipitations totales tombées entre 06:00 UTC la jour donné et 06:00 UTC le lendemain.

Graphiques horaires